createdAt,value
2022-12-03T00:00:12.494Z,102250.47
2022-12-03T00:02:40.006Z,102249.59
2022-12-03T00:05:06.876Z,102247.59
2022-12-03T00:07:33.795Z,102242.66
2022-12-03T00:10:00.650Z,102243.03
2022-12-03T00:12:27.318Z,102239.44
2022-12-03T00:14:54.098Z,102239.41
2022-12-03T00:17:20.966Z,102237.34
2022-12-03T00:19:47.642Z,102231.81
2022-12-03T00:22:14.307Z,102234.97
2022-12-03T00:24:40.947Z,102233.41
2022-12-03T00:27:07.939Z,102225.84
2022-12-03T00:29:34.650Z,102227.47
2022-12-03T00:32:01.292Z,102227.53
2022-12-03T00:34:27.953Z,102235.88
2022-12-03T00:36:54.688Z,102225.78
2022-12-03T00:39:21.283Z,102235.25
2022-12-03T00:41:47.911Z,102234.97
2022-12-03T00:44:14.583Z,102238.38
2022-12-03T00:46:41.291Z,102225.38
2022-12-03T00:49:08.035Z,102229.97
2022-12-03T00:51:35.817Z,102222.03
2022-12-03T00:54:02.480Z,102222.94
2022-12-03T00:56:29.198Z,102224.63
2022-12-03T00:58:55.806Z,102227.16
2022-12-03T01:01:22.479Z,102223.63
2022-12-03T01:03:49.147Z,102224.59
2022-12-03T01:06:15.805Z,102230.66
2022-12-03T01:08:42.488Z,102237.97
2022-12-03T01:11:29.143Z,102238.25
2022-12-03T01:13:55.805Z,102240.41
2022-12-03T01:16:22.537Z,102238.81
2022-12-03T01:18:52.291Z,102242.13
2022-12-03T01:21:19.713Z,102245.75
2022-12-03T01:23:46.392Z,102244.19
2022-12-03T01:26:13.227Z,102241.56
2022-12-03T01:28:41.838Z,102240.31
2022-12-03T01:31:27.994Z,102248.56
2022-12-03T01:33:55.435Z,102244.97
2022-12-03T01:36:22.298Z,102244.09
2022-12-03T01:38:49.121Z,102253.19
2022-12-03T01:41:18.513Z,102243.84
2022-12-03T01:43:47.581Z,102251.13
2022-12-03T01:46:18.881Z,102253.41
2022-12-03T01:48:47.701Z,102256.94
2022-12-03T01:51:15.083Z,102251.25
2022-12-03T01:53:43.778Z,102257.31
2022-12-03T01:56:15.850Z,102258.84
2022-12-03T01:58:43.528Z,102249.94
2022-12-03T02:01:16.912Z,102246.00
2022-12-03T02:03:44.842Z,102237.56
2022-12-03T02:06:22.861Z,102257.16
2022-12-03T02:08:49.723Z,102242.09
2022-12-03T02:11:25.502Z,102247.31
2022-12-03T02:13:56.844Z,102255.28
2022-12-03T02:16:23.835Z,102253.81
2022-12-03T02:18:50.586Z,102246.31
2022-12-03T02:21:53.671Z,102249.94
2022-12-03T02:24:55.492Z,102252.91
2022-12-03T02:27:23.366Z,102251.22
2022-12-03T02:29:50.116Z,102245.59
2022-12-03T02:32:17.024Z,102249.53
2022-12-03T02:34:45.425Z,102245.66
2022-12-03T02:37:36.605Z,102246.31
2022-12-03T02:40:07.813Z,102246.47
2022-12-03T02:42:36.074Z,102241.59
2022-12-03T02:45:11.969Z,102255.91
2022-12-03T02:47:43.262Z,102241.91
2022-12-03T02:50:12.463Z,102243.75
2022-12-03T02:52:40.693Z,102253.03
2022-12-03T02:55:09.087Z,102257.78
2022-12-03T02:57:38.727Z,102249.16
2022-12-03T03:00:07.111Z,102252.50
2022-12-03T03:02:34.726Z,102249.94
2022-12-03T03:05:01.627Z,102250.63
2022-12-03T03:07:28.484Z,102249.03
2022-12-03T03:09:55.474Z,102255.22
2022-12-03T03:12:22.139Z,102239.25
2022-12-03T03:14:48.776Z,102251.84
2022-12-03T03:17:15.524Z,102243.03
2022-12-03T03:19:42.437Z,102244.28
2022-12-03T03:22:12.297Z,102249.47
2022-12-03T03:24:39.512Z,102239.72
2022-12-03T03:27:06.465Z,102245.59
2022-12-03T03:29:33.959Z,102245.78
2022-12-03T03:32:01.951Z,102237.88
2022-12-03T03:34:32.153Z,102229.09
2022-12-03T03:36:58.909Z,102236.28
2022-12-03T03:39:25.652Z,102239.84
2022-12-03T03:41:52.464Z,102238.41
2022-12-03T03:44:19.250Z,102229.28
2022-12-03T03:46:45.994Z,102224.44
2022-12-03T03:49:13.200Z,102226.72
2022-12-03T03:51:39.945Z,102217.53
2022-12-03T03:54:07.310Z,102221.56
2022-12-03T03:56:34.541Z,102221.88
2022-12-03T03:59:02.079Z,102225.34
2022-12-03T04:01:29.808Z,102212.06
2022-12-03T04:03:57.415Z,102228.34
2022-12-03T04:06:24.153Z,102215.56
2022-12-03T04:08:50.766Z,102216.13
2022-12-03T04:11:36.224Z,102219.81
2022-12-03T04:14:03.368Z,102215.06
2022-12-03T04:16:30.087Z,102211.34
2022-12-03T04:18:56.749Z,102219.81
2022-12-03T04:21:42.981Z,102221.34
2022-12-03T04:24:11.197Z,102209.25
2022-12-03T04:26:56.443Z,102208.97
2022-12-03T04:29:23.513Z,102218.13
2022-12-03T04:32:08.916Z,102221.38
2022-12-03T04:34:54.485Z,102219.91
2022-12-03T04:37:21.686Z,102222.50
2022-12-03T04:39:48.379Z,102215.25
2022-12-03T04:42:15.143Z,102212.38
2022-12-03T04:44:41.855Z,102208.94
2022-12-03T04:47:20.939Z,102213.09
2022-12-03T04:49:50.156Z,102211.28
2022-12-03T04:52:19.511Z,102216.06
2022-12-03T04:54:46.419Z,102216.31
2022-12-03T04:57:13.208Z,102225.13
2022-12-03T04:59:40.295Z,102222.75
2022-12-03T05:02:07.572Z,102217.72
2022-12-03T05:04:34.762Z,102229.53
2022-12-03T05:07:01.888Z,102220.84
2022-12-03T05:09:28.498Z,102224.56
2022-12-03T05:11:55.116Z,102230.25
2022-12-03T05:14:21.796Z,102217.25
2022-12-03T05:16:48.667Z,102213.94
2022-12-03T05:19:15.342Z,102201.63
2022-12-03T05:21:41.978Z,102193.22
2022-12-03T05:24:08.695Z,102190.88
2022-12-03T05:26:35.443Z,102188.13
2022-12-03T05:29:02.207Z,102201.75
2022-12-03T05:31:28.982Z,102191.66
2022-12-03T05:33:55.638Z,102197.28
2022-12-03T05:36:22.305Z,102199.97
2022-12-03T05:38:48.950Z,102197.63
2022-12-03T05:41:33.832Z,102200.75
2022-12-03T05:44:00.552Z,102202.56
2022-12-03T05:46:27.287Z,102202.75
2022-12-03T05:48:54.953Z,102204.38
2022-12-03T05:51:21.601Z,102195.69
2022-12-03T05:53:48.217Z,102208.59
2022-12-03T05:56:14.820Z,102198.09
2022-12-03T05:58:41.473Z,102200.13
2022-12-03T06:01:08.413Z,102192.78
2022-12-03T06:03:36.353Z,102194.75
2022-12-03T06:06:03.073Z,102188.03
2022-12-03T06:08:29.696Z,102186.31
2022-12-03T06:10:56.283Z,102176.84
2022-12-03T06:13:22.904Z,102176.94
2022-12-03T06:15:49.583Z,102172.63
2022-12-03T06:18:16.243Z,102164.91
2022-12-03T06:20:42.906Z,102178.72
2022-12-03T06:23:09.625Z,102169.34
2022-12-03T06:25:36.283Z,102163.81
2022-12-03T06:28:02.989Z,102170.78
2022-12-03T06:30:29.649Z,102173.00
2022-12-03T06:32:59.612Z,102162.19
2022-12-03T06:35:26.267Z,102181.66
2022-12-03T06:37:52.887Z,102171.63
2022-12-03T06:40:19.878Z,102172.59
2022-12-03T06:42:46.552Z,102175.75
2022-12-03T06:45:13.238Z,102167.38
2022-12-03T06:47:39.931Z,102182.31
2022-12-03T06:50:07.741Z,102185.66
2022-12-03T06:52:35.288Z,102177.25
2022-12-03T06:55:02.009Z,102179.47
2022-12-03T06:57:28.695Z,102176.25
2022-12-03T06:59:55.827Z,102177.59
2022-12-03T07:02:23.062Z,102186.66
2022-12-03T07:04:49.875Z,102195.13
2022-12-03T07:07:16.538Z,102189.97
2022-12-03T07:09:43.540Z,102189.75
2022-12-03T07:12:10.281Z,102186.06
2022-12-03T07:14:37.708Z,102192.50
2022-12-03T07:17:04.352Z,102182.31
2022-12-03T07:19:33.024Z,102193.88
2022-12-03T07:22:00.198Z,102190.97
2022-12-03T07:24:26.853Z,102189.56
2022-12-03T07:26:53.548Z,102184.16
2022-12-03T07:29:20.366Z,102170.47
2022-12-03T07:31:47.081Z,102178.75
2022-12-03T07:34:13.820Z,102177.22
2022-12-03T07:36:40.529Z,102174.88
2022-12-03T07:39:07.653Z,102170.63
2022-12-03T07:41:34.880Z,102168.91
2022-12-03T07:44:01.560Z,102177.44
2022-12-03T07:46:28.298Z,102175.59
2022-12-03T07:48:55.029Z,102180.59
2022-12-03T07:51:21.683Z,102178.91
2022-12-03T07:53:48.455Z,102177.31
2022-12-03T07:56:15.124Z,102174.03
2022-12-03T07:58:41.755Z,102166.56
2022-12-03T08:01:08.526Z,102175.75
2022-12-03T08:03:35.323Z,102168.69
2022-12-03T08:06:01.950Z,102163.16
2022-12-03T08:08:28.603Z,102166.63
2022-12-03T08:10:55.290Z,102173.41
2022-12-03T08:13:21.990Z,102169.16
2022-12-03T08:15:48.709Z,102161.47
2022-12-03T08:18:19.465Z,102162.38
2022-12-03T08:20:50.969Z,102174.88
2022-12-03T08:23:25.392Z,102159.50
2022-12-03T08:25:53.128Z,102160.00
2022-12-03T08:28:25.705Z,102164.44
2022-12-03T08:31:01.592Z,102170.56
2022-12-03T08:33:35.373Z,102172.28
2022-12-03T08:36:12.284Z,102161.09
2022-12-03T08:38:40.944Z,102167.06
2022-12-03T08:41:15.812Z,102170.34
2022-12-03T08:43:43.866Z,102161.94
2022-12-03T08:46:18.957Z,102160.38
2022-12-03T08:48:49.194Z,102156.03
2022-12-03T08:51:25.039Z,102154.34
2022-12-03T08:53:59.761Z,102141.16
2022-12-03T08:56:30.555Z,102136.19
2022-12-03T08:59:23.757Z,102140.34
2022-12-03T09:01:51.597Z,102135.31
2022-12-03T09:04:36.037Z,102148.91
2022-12-03T09:07:02.835Z,102138.00
2022-12-03T09:09:29.512Z,102138.97
2022-12-03T09:11:56.575Z,102139.59
2022-12-03T09:14:23.621Z,102133.72
2022-12-03T09:16:55.392Z,102133.09
2022-12-03T09:19:24.189Z,102126.75
2022-12-03T09:21:51.117Z,102126.13
2022-12-03T09:24:17.847Z,102126.97
2022-12-03T09:26:44.542Z,102119.44
2022-12-03T09:29:12.559Z,102128.25
2022-12-03T09:31:39.654Z,102124.84
2022-12-03T09:34:07.011Z,102120.28
2022-12-03T09:36:34.013Z,102117.31
2022-12-03T09:39:00.746Z,102122.44
2022-12-03T09:41:27.654Z,102126.88
2022-12-03T09:44:15.792Z,102121.56
2022-12-03T09:46:42.689Z,102134.56
2022-12-03T09:49:15.991Z,102130.00
2022-12-03T09:51:44.192Z,102130.50
2022-12-03T09:54:22.910Z,102121.03
2022-12-03T09:56:49.765Z,102119.44
2022-12-03T09:59:16.833Z,102121.31
2022-12-03T10:01:44.412Z,102112.13
2022-12-03T10:04:11.854Z,102118.88
2022-12-03T10:06:45.328Z,102113.00
2022-12-03T10:09:17.168Z,102110.75
2022-12-03T10:11:43.973Z,102110.25
2022-12-03T10:14:14.214Z,102107.03
2022-12-03T10:16:41.775Z,102101.59
2022-12-03T10:19:25.394Z,102103.44
2022-12-03T10:21:52.303Z,102098.28
2022-12-03T10:24:20.402Z,102095.03
2022-12-03T10:26:48.711Z,102103.47
2022-12-03T10:29:25.805Z,102104.34
2022-12-03T10:32:11.752Z,102097.22
2022-12-03T10:34:40.851Z,102095.75
2022-12-03T10:37:08.959Z,102096.78
2022-12-03T10:39:55.749Z,102084.50
2022-12-03T10:42:24.318Z,102090.56
2022-12-03T10:45:18.929Z,102084.81
2022-12-03T10:48:25.370Z,102081.09
2022-12-03T10:51:01.917Z,102084.78
2022-12-03T10:53:30.270Z,102082.78
2022-12-03T10:56:01.868Z,102077.41
2022-12-03T10:58:35.229Z,102079.28
2022-12-03T11:01:06.724Z,102073.28
2022-12-03T11:03:35.390Z,102068.25
2022-12-03T11:06:02.846Z,102064.78
2022-12-03T11:08:34.554Z,102073.69
2022-12-03T11:11:03.745Z,102065.41
2022-12-03T11:13:48.330Z,102066.44
2022-12-03T11:16:40.714Z,102062.56
2022-12-03T11:19:13.250Z,102062.72
2022-12-03T11:22:09.916Z,102055.25
2022-12-03T11:24:38.600Z,102045.91
2022-12-03T11:27:06.865Z,102057.22
2022-12-03T11:29:47.415Z,102047.41
2022-12-03T11:32:38.909Z,102040.81
2022-12-03T11:35:12.970Z,102043.22
2022-12-03T11:37:39.878Z,102044.00
2022-12-03T11:40:18.545Z,102041.53
2022-12-03T11:42:47.972Z,102035.47
2022-12-03T11:45:35.245Z,102026.66
2022-12-03T11:48:12.642Z,102028.69
2022-12-03T11:50:43.085Z,102021.97
2022-12-03T11:53:20.031Z,102022.59
2022-12-03T11:55:52.188Z,102025.06
2022-12-03T11:58:30.298Z,102011.22
2022-12-03T12:00:59.283Z,102006.28
2022-12-03T12:03:34.071Z,102006.00
2022-12-03T12:06:01.376Z,102006.06
2022-12-03T12:08:28.018Z,102003.38
2022-12-03T12:10:55.067Z,102001.97
2022-12-03T12:13:30.474Z,102005.19
2022-12-03T12:16:02.311Z,101994.09
2022-12-03T12:18:43.018Z,101997.22
2022-12-03T12:21:47.609Z,101985.47
2022-12-03T12:24:40.686Z,101983.78
2022-12-03T12:27:10.224Z,101986.03
2022-12-03T12:29:38.503Z,101976.84
2022-12-03T12:32:12.464Z,101977.41
2022-12-03T12:34:40.780Z,101969.16
2022-12-03T12:37:22.156Z,101962.34
2022-12-03T12:39:52.631Z,101962.19
2022-12-03T12:42:33.115Z,101955.97
2022-12-03T12:45:14.960Z,101954.34
2022-12-03T12:48:16.277Z,101951.56
2022-12-03T12:50:45.676Z,101949.41
2022-12-03T12:53:22.823Z,101951.22
2022-12-03T12:55:56.079Z,101941.75
2022-12-03T12:58:23.299Z,101943.09
2022-12-03T13:00:58.963Z,101932.09
2022-12-03T13:03:32.978Z,101938.31
2022-12-03T13:05:59.810Z,101935.75
2022-12-03T13:08:38.472Z,101926.94
2022-12-03T13:11:06.483Z,101927.78
2022-12-03T13:13:43.965Z,101925.34
2022-12-03T13:16:26.425Z,101928.34
2022-12-03T13:19:00.999Z,101919.03
2022-12-03T13:21:43.953Z,101920.47
2022-12-03T13:24:36.860Z,101917.44
2022-12-03T13:27:29.622Z,101916.53
2022-12-03T13:30:00.782Z,101914.19
2022-12-03T13:32:36.575Z,101920.97
2022-12-03T13:35:11.861Z,101921.84
2022-12-03T13:37:38.844Z,101924.44
2022-12-03T13:40:27.603Z,101925.22
2022-12-03T13:42:55.117Z,101922.59
2022-12-03T13:45:24.654Z,101925.09
2022-12-03T13:47:57.813Z,101922.59
2022-12-03T13:50:46.186Z,101927.00
2022-12-03T13:53:26.742Z,101932.19
2022-12-03T13:56:15.442Z,101939.16
2022-12-03T13:58:42.145Z,101928.69
2022-12-03T14:01:08.889Z,101931.00
2022-12-03T14:03:35.526Z,101920.03
2022-12-03T14:06:02.176Z,101927.03
2022-12-03T14:08:29.788Z,101926.13
2022-12-03T14:11:00.432Z,101921.88
2022-12-03T14:13:28.032Z,101923.59
2022-12-03T14:15:55.273Z,101917.28
2022-12-03T14:18:22.272Z,101923.53
2022-12-03T14:20:48.930Z,101916.59
2022-12-03T14:23:15.863Z,101916.66
2022-12-03T14:25:44.015Z,101914.84
2022-12-03T14:28:10.939Z,101904.59
2022-12-03T14:30:37.749Z,101913.03
2022-12-03T14:33:04.447Z,101908.09
2022-12-03T14:35:31.091Z,101900.31
2022-12-03T14:37:57.762Z,101907.09
2022-12-03T14:40:24.553Z,101907.88
2022-12-03T14:42:51.182Z,101911.50
2022-12-03T14:45:17.828Z,101910.16
2022-12-03T14:47:44.477Z,101910.44
2022-12-03T14:50:14.308Z,101906.03
2022-12-03T14:52:41.262Z,101902.50
2022-12-03T14:55:08.409Z,101899.34
2022-12-03T14:57:36.766Z,101893.34
2022-12-03T15:00:05.528Z,101898.19
2022-12-03T15:02:32.432Z,101893.97
2022-12-03T15:04:59.189Z,101890.47
2022-12-03T15:07:26.126Z,101898.59
2022-12-03T15:09:53.156Z,101898.28
2022-12-03T15:12:19.901Z,101896.78
2022-12-03T15:14:47.484Z,101900.53
2022-12-03T15:17:14.240Z,101900.97
2022-12-03T15:19:40.968Z,101900.09
2022-12-03T15:22:07.768Z,101901.53
2022-12-03T15:24:34.448Z,101908.66
2022-12-03T15:27:01.088Z,101894.13
2022-12-03T15:29:43.140Z,101885.09
2022-12-03T15:32:10.156Z,101888.88
2022-12-03T15:34:36.958Z,101894.06
2022-12-03T15:37:04.993Z,101892.19
2022-12-03T15:39:32.954Z,101895.91
2022-12-03T15:41:59.584Z,101891.53
2022-12-03T15:44:26.196Z,101898.97
2022-12-03T15:46:52.765Z,101890.41
2022-12-03T15:49:19.961Z,101885.47
2022-12-03T15:51:46.534Z,101881.84
2022-12-03T15:54:15.481Z,101884.63
2022-12-03T15:56:42.218Z,101882.69
2022-12-03T15:59:09.357Z,101881.94
2022-12-03T16:01:36.226Z,101872.56
2022-12-03T16:04:02.889Z,101881.13
2022-12-03T16:06:29.456Z,101883.91
2022-12-03T16:08:56.146Z,101877.81
2022-12-03T16:11:22.936Z,101883.84
2022-12-03T16:13:50.040Z,101880.47
2022-12-03T16:16:16.719Z,101876.88
2022-12-03T16:18:43.486Z,101884.75
2022-12-03T16:21:12.884Z,101875.38
2022-12-03T16:23:39.878Z,101879.50
2022-12-03T16:26:06.623Z,101873.44
2022-12-03T16:28:35.607Z,101871.63
2022-12-03T16:31:02.514Z,101869.97
2022-12-03T16:33:29.133Z,101870.88
2022-12-03T16:35:58.140Z,101877.03
2022-12-03T16:38:24.761Z,101877.00
2022-12-03T16:40:51.684Z,101880.41
2022-12-03T16:43:21.620Z,101880.38
2022-12-03T16:46:02.097Z,101877.78
2022-12-03T16:48:30.126Z,101880.31
2022-12-03T16:50:57.279Z,101875.81
2022-12-03T16:53:23.859Z,101877.72
2022-12-03T16:55:52.427Z,101875.97
2022-12-03T16:58:21.314Z,101880.41
2022-12-03T17:00:53.207Z,101879.47
2022-12-03T17:03:29.000Z,101875.09
2022-12-03T17:06:08.571Z,101873.94
2022-12-03T17:08:41.043Z,101878.28
2022-12-03T17:11:09.843Z,101868.06
2022-12-03T17:13:36.426Z,101873.97
2022-12-03T17:16:03.453Z,101869.88
2022-12-03T17:18:37.210Z,101873.31
2022-12-03T17:21:06.774Z,101859.75
2022-12-03T17:23:33.358Z,101860.53
2022-12-03T17:25:59.949Z,101856.28
2022-12-03T17:28:28.119Z,101868.16
2022-12-03T17:30:57.121Z,101864.81
2022-12-03T17:33:29.964Z,101867.50
2022-12-03T17:35:57.262Z,101852.81
2022-12-03T17:38:27.431Z,101863.06
2022-12-03T17:40:54.027Z,101857.13
2022-12-03T17:43:20.586Z,101857.06
2022-12-03T17:45:47.245Z,101850.09
2022-12-03T17:48:14.319Z,101853.56
2022-12-03T17:50:41.152Z,101842.28
2022-12-03T17:53:10.361Z,101843.91
2022-12-03T17:55:44.246Z,101851.72
2022-12-03T17:58:15.267Z,101845.22
2022-12-03T18:00:42.381Z,101846.41
2022-12-03T18:03:09.259Z,101848.16
2022-12-03T18:05:36.288Z,101850.59
2022-12-03T18:08:03.428Z,101853.63
2022-12-03T18:10:30.156Z,101846.66
2022-12-03T18:13:01.440Z,101852.00
2022-12-03T18:15:28.839Z,101856.25
2022-12-03T18:17:59.203Z,101854.06
2022-12-03T18:20:26.415Z,101855.09
2022-12-03T18:22:53.495Z,101865.53
2022-12-03T18:25:20.445Z,101858.75
2022-12-03T18:27:47.528Z,101856.13
2022-12-03T18:30:14.347Z,101858.84
2022-12-03T18:32:41.312Z,101863.63
2022-12-03T18:35:09.251Z,101859.00
2022-12-03T18:37:42.678Z,101861.97
2022-12-03T18:40:18.594Z,101863.66
2022-12-03T18:42:45.377Z,101865.19
2022-12-03T18:45:15.058Z,101861.31
2022-12-03T18:47:45.240Z,101857.69
2022-12-03T18:50:12.950Z,101863.75
2022-12-03T18:52:43.140Z,101851.50
2022-12-03T18:55:23.768Z,101861.09
2022-12-03T18:57:52.540Z,101864.81
2022-12-03T19:00:20.253Z,101861.53
2022-12-03T19:03:03.750Z,101871.75
2022-12-03T19:05:35.406Z,101870.69
2022-12-03T19:08:17.299Z,101868.78
2022-12-03T19:10:44.660Z,101871.09
2022-12-03T19:13:17.835Z,101874.13
2022-12-03T19:15:46.386Z,101867.34
2022-12-03T19:18:14.984Z,101863.59
2022-12-03T19:20:43.124Z,101863.09
2022-12-03T19:23:10.313Z,101873.72
2022-12-03T19:25:37.207Z,101866.78
2022-12-03T19:28:05.961Z,101869.13
2022-12-03T19:30:32.831Z,101869.84
2022-12-03T19:32:59.597Z,101870.91
2022-12-03T19:35:26.397Z,101866.03
2022-12-03T19:37:57.298Z,101864.38
2022-12-03T19:40:24.116Z,101869.53
2022-12-03T19:42:50.950Z,101865.13
2022-12-03T19:45:17.638Z,101874.50
2022-12-03T19:47:45.084Z,101871.34
2022-12-03T19:50:14.758Z,101873.00
2022-12-03T19:52:44.870Z,101873.66
2022-12-03T19:55:13.617Z,101876.31
2022-12-03T19:57:40.451Z,101872.06
2022-12-03T20:00:08.015Z,101878.50
2022-12-03T20:02:39.193Z,101873.56
2022-12-03T20:05:06.309Z,101870.19
2022-12-03T20:07:33.098Z,101872.75
2022-12-03T20:10:00.856Z,101878.94
2022-12-03T20:12:28.012Z,101876.31
2022-12-03T20:14:55.087Z,101880.28
2022-12-03T20:17:21.941Z,101886.59
2022-12-03T20:19:48.953Z,101883.44
2022-12-03T20:22:16.139Z,101885.81
2022-12-03T20:24:43.166Z,101889.56
2022-12-03T20:27:09.963Z,101888.16
2022-12-03T20:29:36.870Z,101887.88
2022-12-03T20:32:05.029Z,101893.13
2022-12-03T20:34:34.146Z,101888.94
2022-12-03T20:37:03.543Z,101879.72
2022-12-03T20:39:30.325Z,101886.69
2022-12-03T20:41:57.119Z,101884.91
2022-12-03T20:44:24.419Z,101887.88
2022-12-03T20:46:51.158Z,101885.66
2022-12-03T20:49:18.170Z,101891.91
2022-12-03T20:51:45.488Z,101891.84
2022-12-03T20:54:12.335Z,101889.59
2022-12-03T20:56:42.281Z,101896.19
2022-12-03T20:59:13.107Z,101885.91
2022-12-03T21:01:40.942Z,101869.84
2022-12-03T21:04:09.062Z,101877.91
2022-12-03T21:06:37.590Z,101886.78
2022-12-03T21:09:09.031Z,101889.97
2022-12-03T21:11:36.632Z,101888.22
2022-12-03T21:14:04.350Z,101885.19
2022-12-03T21:19:22.920Z,101880.28
2022-12-03T21:21:50.103Z,101890.59
2022-12-03T21:24:16.975Z,101876.22
2022-12-03T21:26:44.012Z,101883.69
2022-12-03T21:29:10.982Z,101885.66
2022-12-03T21:31:39.795Z,101886.63
2022-12-03T21:34:08.811Z,101884.25
2022-12-03T21:36:36.106Z,101889.75
2022-12-03T21:39:03.207Z,101883.31
2022-12-03T21:41:30.194Z,101884.69
2022-12-03T21:43:57.130Z,101889.53
2022-12-03T21:47:12.622Z,101894.13
2022-12-03T21:49:11.127Z,101884.72
2022-12-03T21:51:38.156Z,101892.53
2022-12-03T21:54:05.234Z,101889.56
2022-12-03T21:56:33.178Z,101894.13
2022-12-03T21:59:00.670Z,101894.59
2022-12-03T22:01:27.838Z,101887.56
2022-12-03T22:03:55.110Z,101887.78
2022-12-03T22:06:22.766Z,101890.16
2022-12-03T22:08:50.173Z,101887.56
2022-12-03T22:11:20.370Z,101885.06
2022-12-03T22:13:47.514Z,101891.66
2022-12-03T22:16:17.651Z,101886.78
2022-12-03T22:18:45.058Z,101887.06
2022-12-03T22:21:15.738Z,101877.63
2022-12-03T22:23:43.116Z,101877.38
2022-12-03T22:26:12.921Z,101882.63
2022-12-03T22:28:43.662Z,101881.00
2022-12-03T22:31:11.180Z,101882.59
2022-12-03T22:33:38.777Z,101882.47
2022-12-03T22:36:08.581Z,101875.78
2022-12-03T22:38:35.904Z,101872.50
2022-12-03T22:41:10.488Z,101876.44
2022-12-03T22:43:37.600Z,101884.00
2022-12-03T22:46:06.673Z,101881.63
2022-12-03T22:48:34.416Z,101879.75
2022-12-03T22:51:01.131Z,101876.16
2022-12-03T22:53:27.989Z,101880.66
2022-12-03T22:55:56.659Z,101876.22
2022-12-03T22:58:24.313Z,101866.56
2022-12-03T23:00:52.341Z,101865.03
2022-12-03T23:03:19.746Z,101871.31
2022-12-03T23:05:46.925Z,101872.19
2022-12-03T23:08:16.798Z,101870.56
2022-12-03T23:10:46.560Z,101872.19
2022-12-03T23:13:13.989Z,101873.63
2022-12-03T23:15:46.666Z,101869.63
2022-12-03T23:18:13.981Z,101868.34
2022-12-03T23:20:50.863Z,101870.44
2022-12-03T23:23:19.425Z,101858.72
2022-12-03T23:26:16.439Z,101865.63
2022-12-03T23:28:45.422Z,101870.06
2022-12-03T23:31:26.931Z,101873.09
2022-12-03T23:33:54.490Z,101870.63
2022-12-03T23:36:23.282Z,101872.19
2022-12-03T23:38:50.203Z,101863.59
2022-12-03T23:41:19.718Z,101860.06
2022-12-03T23:43:46.848Z,101860.16
2022-12-03T23:46:16.372Z,101861.59
2022-12-03T23:48:43.916Z,101861.91
2022-12-03T23:51:13.197Z,101865.22
2022-12-03T23:53:41.150Z,101868.09
2022-12-03T23:56:13.810Z,101857.38
2022-12-03T23:58:40.869Z,101859.28
